createdAt,value
2023-01-25T00:00:54.068Z,42.17
2023-01-25T00:03:27.746Z,44.55
2023-01-25T00:06:01.957Z,41.05
2023-01-25T00:08:30.961Z,42.00
2023-01-25T00:11:00.175Z,37.90
2023-01-25T00:13:28.051Z,39.17
2023-01-25T00:16:03.799Z,39.97
2023-01-25T00:18:32.049Z,36.30
2023-01-25T00:21:00.114Z,36.28
2023-01-25T00:23:27.750Z,37.03
2023-01-25T00:25:59.200Z,32.80
2023-01-25T00:28:27.233Z,33.13
2023-01-25T00:31:03.178Z,41.47
2023-01-25T00:33:40.830Z,40.47
2023-01-25T00:36:41.078Z,35.75
2023-01-25T00:39:13.196Z,35.15
2023-01-25T00:41:41.478Z,33.78
2023-01-25T00:44:09.002Z,31.02
2023-01-25T00:46:37.174Z,31.25
2023-01-25T00:49:08.005Z,29.98
2023-01-25T00:51:36.444Z,35.25
2023-01-25T00:54:04.317Z,32.45
2023-01-25T00:56:32.762Z,27.25
2023-01-25T00:59:00.396Z,30.70
2023-01-25T01:01:28.851Z,28.20
2023-01-25T01:03:56.399Z,28.10
2023-01-25T01:06:24.706Z,29.25
2023-01-25T01:08:54.290Z,31.05
2023-01-25T01:11:23.858Z,27.08
2023-01-25T01:13:51.750Z,27.95
2023-01-25T01:16:20.299Z,26.88
2023-01-25T01:18:48.148Z,26.67
2023-01-25T01:21:16.718Z,31.42
2023-01-25T01:23:44.783Z,29.20
2023-01-25T01:26:15.788Z,29.92
2023-01-25T01:28:43.751Z,28.23
2023-01-25T01:31:15.081Z,27.20
2023-01-25T01:33:51.741Z,28.45
2023-01-25T01:36:22.257Z,31.60
2023-01-25T01:38:49.925Z,36.22
2023-01-25T01:41:18.627Z,34.88
2023-01-25T01:43:50.775Z,31.45
2023-01-25T01:46:29.387Z,29.75
2023-01-25T01:49:04.267Z,32.70
2023-01-25T01:51:42.710Z,38.90
2023-01-25T01:54:18.216Z,31.65
2023-01-25T01:57:09.471Z,37.15
2023-01-25T02:00:07.422Z,30.55
2023-01-25T02:02:42.082Z,32.10
2023-01-25T02:05:41.231Z,34.67
2023-01-25T02:08:13.636Z,27.90
2023-01-25T02:10:42.765Z,32.58
2023-01-25T02:13:11.765Z,36.72
2023-01-25T02:15:42.757Z,34.05
2023-01-25T02:18:12.040Z,32.80
2023-01-25T02:20:43.598Z,34.70
2023-01-25T02:23:17.879Z,29.77
2023-01-25T02:25:45.737Z,35.40
2023-01-25T02:28:46.206Z,34.50
2023-01-25T02:31:15.181Z,33.25
2023-01-25T02:33:43.405Z,33.63
2023-01-25T02:36:12.117Z,35.90
2023-01-25T02:38:44.367Z,36.72
2023-01-25T02:41:36.880Z,43.97
2023-01-25T02:44:13.836Z,38.20
2023-01-25T02:46:45.352Z,40.40
2023-01-25T02:49:15.946Z,33.08
2023-01-25T02:51:47.735Z,38.55
2023-01-25T02:54:18.175Z,41.60
2023-01-25T02:56:46.075Z,31.25
2023-01-25T02:59:14.766Z,34.67
2023-01-25T03:01:47.259Z,34.78
2023-01-25T03:04:15.966Z,36.58
2023-01-25T03:06:44.407Z,39.47
2023-01-25T03:09:13.282Z,38.30
2023-01-25T03:11:46.581Z,30.83
2023-01-25T03:14:15.150Z,32.17
2023-01-25T03:16:42.898Z,35.97
2023-01-25T03:19:11.523Z,38.83
2023-01-25T03:21:41.355Z,38.60
2023-01-25T03:24:10.718Z,37.03
2023-01-25T03:27:02.117Z,43.88
2023-01-25T03:29:41.713Z,39.17
2023-01-25T03:32:15.161Z,50.17
2023-01-25T03:34:43.560Z,47.03
2023-01-25T03:37:11.405Z,52.15
2023-01-25T03:39:41.843Z,44.22
2023-01-25T03:42:10.465Z,50.60
2023-01-25T03:44:38.733Z,51.55
2023-01-25T03:47:07.015Z,51.25
2023-01-25T03:49:35.581Z,50.35
2023-01-25T03:52:06.023Z,53.47
2023-01-25T03:54:38.090Z,41.92
2023-01-25T03:57:08.883Z,51.05
2023-01-25T03:59:47.187Z,59.58
2023-01-25T04:02:15.364Z,58.72
2023-01-25T04:04:44.443Z,59.83
2023-01-25T04:07:14.052Z,57.03
2023-01-25T04:09:42.646Z,60.35
2023-01-25T04:12:12.484Z,65.40
2023-01-25T04:14:44.569Z,59.17
2023-01-25T04:17:19.739Z,64.90
2023-01-25T04:20:07.283Z,54.78
2023-01-25T04:22:40.060Z,69.72
2023-01-25T04:25:10.558Z,58.70
2023-01-25T04:27:44.380Z,61.95
2023-01-25T04:30:16.503Z,65.60
2023-01-25T04:32:46.308Z,65.30
2023-01-25T04:35:33.354Z,62.60
2023-01-25T04:38:03.196Z,72.07
2023-01-25T04:40:41.221Z,53.30
2023-01-25T04:43:09.375Z,69.28
2023-01-25T04:45:37.847Z,65.68
2023-01-25T04:48:13.022Z,62.58
2023-01-25T04:50:48.841Z,63.92
2023-01-25T04:53:17.419Z,65.47
2023-01-25T04:55:47.439Z,70.70
2023-01-25T04:58:15.988Z,72.45
2023-01-25T05:00:45.595Z,72.35
2023-01-25T05:03:13.594Z,69.80
2023-01-25T05:05:48.803Z,64.50
2023-01-25T05:08:21.480Z,67.00
2023-01-25T05:10:49.986Z,82.53
2023-01-25T05:13:29.275Z,69.70
2023-01-25T05:16:17.601Z,77.15
2023-01-25T05:18:48.784Z,66.35
2023-01-25T05:21:44.700Z,78.53
2023-01-25T05:24:14.414Z,81.25
2023-01-25T05:27:01.622Z,67.32
2023-01-25T05:29:40.927Z,76.57
2023-01-25T05:32:12.541Z,80.25
2023-01-25T05:34:40.544Z,75.15
2023-01-25T05:37:11.664Z,69.78
2023-01-25T05:39:43.039Z,81.13
2023-01-25T05:42:13.409Z,85.60
2023-01-25T05:44:41.877Z,83.45
2023-01-25T05:47:16.089Z,78.20
2023-01-25T05:49:44.472Z,80.10
2023-01-25T05:52:19.049Z,84.03
2023-01-25T05:54:47.263Z,76.10
2023-01-25T05:57:17.047Z,77.57
2023-01-25T05:59:45.643Z,84.07
2023-01-25T06:02:17.269Z,82.00
2023-01-25T06:04:47.744Z,81.25
2023-01-25T06:07:16.221Z,79.85
2023-01-25T06:09:45.058Z,71.10
2023-01-25T06:12:13.645Z,83.72
2023-01-25T06:14:42.544Z,73.10
2023-01-25T06:17:11.044Z,85.13
2023-01-25T06:19:57.284Z,78.03
2023-01-25T06:22:36.869Z,84.95
2023-01-25T06:25:05.334Z,79.45
2023-01-25T06:27:33.794Z,79.32
2023-01-25T06:30:01.636Z,81.43
2023-01-25T06:32:33.355Z,78.28
2023-01-25T06:35:01.029Z,84.75
2023-01-25T06:37:29.549Z,77.30
2023-01-25T06:39:58.113Z,86.90
2023-01-25T06:42:26.585Z,83.30
2023-01-25T06:44:54.387Z,74.47
2023-01-25T06:47:22.924Z,84.30
2023-01-25T06:49:50.732Z,81.82
2023-01-25T06:52:19.379Z,80.13
2023-01-25T06:54:47.333Z,78.65
2023-01-25T06:57:15.712Z,80.35
2023-01-25T06:59:43.277Z,78.15
2023-01-25T07:02:17.708Z,84.05
2023-01-25T07:04:46.094Z,76.10
2023-01-25T07:07:14.863Z,81.72
2023-01-25T07:09:42.617Z,85.15
2023-01-25T07:12:11.067Z,78.85
2023-01-25T07:14:38.832Z,86.90
2023-01-25T07:17:06.793Z,85.03
2023-01-25T07:19:34.518Z,86.63
2023-01-25T07:22:03.194Z,79.03
2023-01-25T07:24:31.202Z,79.68
2023-01-25T07:26:59.787Z,84.20
2023-01-25T07:29:27.795Z,79.13
2023-01-25T07:31:56.176Z,79.72
2023-01-25T07:34:24.050Z,82.20
2023-01-25T07:36:52.363Z,96.07
2023-01-25T07:39:20.128Z,76.85
2023-01-25T07:41:48.429Z,104.47
2023-01-25T07:44:19.654Z,94.22
2023-01-25T07:46:51.462Z,83.45
2023-01-25T07:49:19.817Z,95.00
2023-01-25T07:51:48.480Z,94.97
2023-01-25T07:54:16.342Z,83.13
2023-01-25T07:56:44.876Z,84.15
2023-01-25T07:59:12.662Z,88.85
2023-01-25T08:01:41.328Z,75.18
2023-01-25T08:04:09.912Z,81.88
2023-01-25T08:06:39.619Z,73.97
2023-01-25T08:09:22.635Z,69.28
2023-01-25T08:11:51.302Z,71.63
2023-01-25T08:14:19.123Z,78.32
2023-01-25T08:16:47.150Z,74.97
2023-01-25T08:19:14.817Z,77.63
2023-01-25T08:21:43.419Z,75.47
2023-01-25T08:24:11.293Z,66.68
2023-01-25T08:26:39.400Z,76.20
2023-01-25T08:29:07.264Z,82.32
2023-01-25T08:31:36.647Z,73.53
2023-01-25T08:34:04.879Z,73.95
2023-01-25T08:36:33.994Z,76.10
2023-01-25T08:39:04.607Z,74.45
2023-01-25T08:41:34.655Z,76.80
2023-01-25T08:44:02.520Z,73.97
2023-01-25T08:46:33.469Z,81.43
2023-01-25T08:49:02.514Z,78.70
2023-01-25T08:51:32.405Z,88.45
2023-01-25T08:54:06.945Z,78.18
2023-01-25T08:56:38.036Z,74.78
2023-01-25T08:59:06.406Z,77.18
2023-01-25T09:01:34.737Z,74.15
2023-01-25T09:04:02.493Z,81.28
2023-01-25T09:06:31.229Z,78.75
2023-01-25T09:09:05.060Z,81.60
2023-01-25T09:11:35.383Z,72.15
2023-01-25T09:14:03.692Z,74.00
2023-01-25T09:16:32.364Z,82.45
2023-01-25T09:19:02.158Z,75.75
2023-01-25T09:21:31.474Z,80.07
2023-01-25T09:24:08.225Z,77.05
2023-01-25T09:26:40.888Z,78.63
2023-01-25T09:29:11.482Z,75.18
2023-01-25T09:31:44.199Z,79.93
2023-01-25T09:34:25.542Z,74.95
2023-01-25T09:36:53.701Z,79.05
2023-01-25T09:39:21.864Z,86.88
2023-01-25T09:42:14.668Z,71.20
2023-01-25T09:45:15.762Z,74.82
2023-01-25T09:47:48.727Z,85.45
2023-01-25T09:50:43.394Z,76.68
2023-01-25T09:53:14.533Z,81.65
2023-01-25T09:55:42.930Z,85.35
2023-01-25T09:58:32.846Z,81.90
2023-01-25T10:01:37.675Z,77.82
2023-01-25T10:04:19.912Z,76.32
2023-01-25T10:07:01.040Z,72.78
2023-01-25T10:09:54.976Z,78.50
2023-01-25T10:12:24.692Z,72.78
2023-01-25T10:14:54.126Z,79.68
2023-01-25T10:17:37.637Z,80.78
2023-01-25T10:20:31.225Z,81.32
2023-01-25T10:23:23.918Z,75.60
2023-01-25T10:29:00.681Z,80.40
2023-01-25T10:31:37.597Z,82.93
2023-01-25T10:34:35.471Z,77.75
2023-01-25T10:37:20.125Z,83.90
2023-01-25T10:39:57.587Z,77.38
2023-01-25T10:42:28.344Z,89.03
2023-01-25T10:44:56.969Z,71.53
2023-01-25T10:47:32.393Z,85.13
2023-01-25T10:50:00.792Z,84.88
2023-01-25T10:52:31.058Z,79.20
2023-01-25T10:55:18.077Z,96.15
2023-01-25T10:57:49.947Z,86.95
2023-01-25T11:00:30.345Z,69.03
2023-01-25T11:02:59.586Z,80.32
2023-01-25T11:05:43.833Z,79.00
2023-01-25T11:08:24.540Z,74.30
2023-01-25T11:10:53.944Z,77.55
2023-01-25T11:13:26.453Z,78.72
2023-01-25T11:16:17.966Z,73.82
2023-01-25T11:18:54.567Z,87.65
2023-01-25T11:21:28.029Z,87.18
2023-01-25T11:24:11.521Z,74.93
2023-01-25T11:26:41.123Z,74.80
2023-01-25T11:29:17.367Z,72.78
2023-01-25T11:31:51.009Z,88.80
2023-01-25T11:34:21.573Z,85.18
2023-01-25T11:37:03.023Z,84.68
2023-01-25T11:39:49.209Z,91.07
2023-01-25T11:42:43.377Z,96.75
2023-01-25T11:45:34.778Z,154.38
2023-01-25T11:48:11.971Z,173.85
2023-01-25T11:50:48.270Z,110.10
2023-01-25T11:53:34.965Z,123.20
2023-01-25T11:56:09.265Z,87.28
2023-01-25T11:58:54.817Z,85.68
2023-01-25T12:01:34.114Z,95.38
2023-01-25T12:04:20.701Z,78.53
2023-01-25T12:07:14.296Z,75.40
2023-01-25T12:10:01.914Z,74.30
2023-01-25T12:12:36.284Z,70.82
2023-01-25T12:15:27.348Z,79.28
2023-01-25T12:18:01.398Z,67.65
2023-01-25T12:20:41.125Z,75.70
2023-01-25T12:23:22.361Z,79.60
2023-01-25T12:26:21.371Z,73.97
2023-01-25T12:28:52.930Z,79.75
2023-01-25T12:31:38.602Z,78.07
2023-01-25T12:34:16.942Z,72.05
2023-01-25T12:36:47.588Z,73.78
2023-01-25T12:39:30.926Z,66.13
2023-01-25T12:42:10.346Z,72.05
2023-01-25T12:44:46.885Z,69.28
2023-01-25T12:47:24.429Z,70.82
2023-01-25T12:49:58.648Z,66.75
2023-01-25T12:52:32.632Z,71.13
2023-01-25T12:55:08.303Z,71.60
2023-01-25T12:57:52.011Z,61.20
2023-01-25T13:00:32.880Z,67.43
2023-01-25T13:03:28.820Z,63.83
2023-01-25T13:05:59.216Z,60.45
2023-01-25T13:08:58.796Z,68.15
2023-01-25T13:11:40.987Z,61.30
2023-01-25T13:14:18.252Z,63.17
2023-01-25T13:16:53.910Z,71.82
2023-01-25T13:19:30.185Z,59.85
2023-01-25T13:22:00.054Z,69.60
2023-01-25T13:24:32.533Z,62.60
2023-01-25T13:29:32.941Z,58.38
2023-01-25T13:32:02.698Z,69.70
2023-01-25T13:34:36.356Z,58.35
2023-01-25T13:37:26.175Z,71.65
2023-01-25T13:39:55.967Z,64.45
2023-01-25T13:42:26.361Z,63.25
2023-01-25T13:45:00.787Z,65.85
2023-01-25T13:47:39.223Z,71.53
2023-01-25T13:50:25.681Z,64.75
2023-01-25T13:53:02.326Z,62.90
2023-01-25T13:55:39.545Z,67.00
2023-01-25T13:58:15.345Z,61.15
2023-01-25T14:01:09.275Z,64.03
2023-01-25T14:03:44.409Z,67.38
2023-01-25T14:06:19.333Z,63.92
2023-01-25T14:08:48.146Z,64.72
2023-01-25T14:11:43.414Z,69.63
2023-01-25T14:14:14.977Z,69.30
2023-01-25T14:16:42.922Z,64.07
2023-01-25T14:19:26.593Z,62.85
2023-01-25T14:24:41.558Z,59.20
2023-01-25T14:27:13.838Z,62.80
2023-01-25T14:29:47.881Z,68.50
2023-01-25T14:32:21.260Z,70.63
2023-01-25T14:34:49.261Z,69.47
2023-01-25T14:37:21.484Z,68.32
2023-01-25T14:39:51.470Z,67.68
2023-01-25T14:42:19.796Z,69.53
2023-01-25T14:44:48.423Z,66.95
2023-01-25T14:47:29.917Z,66.75
2023-01-25T14:50:35.468Z,67.03
2023-01-25T14:53:24.246Z,66.80
2023-01-25T14:55:52.799Z,69.65
2023-01-25T14:58:24.321Z,68.35
2023-01-25T15:00:58.198Z,74.25
2023-01-25T15:03:27.598Z,71.88
2023-01-25T15:06:05.175Z,74.78
2023-01-25T15:08:38.246Z,71.20
2023-01-25T15:11:40.336Z,76.13
2023-01-25T15:14:20.339Z,66.05
2023-01-25T15:16:48.655Z,78.15
2023-01-25T15:19:30.108Z,77.60
2023-01-25T15:22:00.679Z,65.00
2023-01-25T15:24:29.089Z,73.88
2023-01-25T15:26:57.614Z,77.63
2023-01-25T15:29:29.313Z,71.93
2023-01-25T15:31:57.927Z,76.65
2023-01-25T15:34:29.670Z,77.72
2023-01-25T15:36:58.067Z,73.70
2023-01-25T15:39:26.931Z,78.63
2023-01-25T15:41:55.473Z,76.80
2023-01-25T15:44:23.368Z,72.88
2023-01-25T15:46:52.275Z,78.53
2023-01-25T15:49:28.223Z,77.30
2023-01-25T15:51:56.484Z,74.32
2023-01-25T15:54:24.715Z,74.93
2023-01-25T15:56:56.422Z,80.85
2023-01-25T15:59:24.710Z,79.50
2023-01-25T16:01:53.242Z,80.07
2023-01-25T16:04:21.132Z,84.03
2023-01-25T16:06:53.764Z,69.78
2023-01-25T16:09:24.192Z,74.50
2023-01-25T16:11:54.994Z,84.45
2023-01-25T16:14:29.363Z,88.18
2023-01-25T16:17:02.871Z,87.30
2023-01-25T16:19:31.628Z,92.65
2023-01-25T16:21:59.577Z,78.43
2023-01-25T16:24:27.344Z,95.82
2023-01-25T16:26:57.868Z,93.95
2023-01-25T16:29:26.422Z,90.40
2023-01-25T16:31:55.324Z,85.03
2023-01-25T16:34:23.802Z,87.88
2023-01-25T16:36:53.475Z,92.57
2023-01-25T16:39:23.385Z,87.85
2023-01-25T16:41:51.848Z,86.57
2023-01-25T16:44:19.958Z,84.95
2023-01-25T16:46:51.261Z,96.10
2023-01-25T16:49:26.789Z,87.55
2023-01-25T16:51:55.460Z,84.38
2023-01-25T16:54:25.163Z,93.90
2023-01-25T16:56:54.578Z,83.32
2023-01-25T16:59:23.661Z,82.38
2023-01-25T17:01:52.076Z,90.13
2023-01-25T17:04:20.445Z,91.40
2023-01-25T17:06:50.916Z,87.88
2023-01-25T17:09:24.110Z,90.22
2023-01-25T17:11:56.304Z,91.30
2023-01-25T17:14:24.980Z,88.55
2023-01-25T17:16:53.999Z,96.20
2023-01-25T17:19:21.950Z,95.53
2023-01-25T17:21:50.167Z,96.15
2023-01-25T17:24:21.157Z,97.75
2023-01-25T17:26:49.408Z,89.05
2023-01-25T17:29:17.189Z,96.10
2023-01-25T17:31:45.681Z,83.53
2023-01-25T17:34:16.383Z,94.53
2023-01-25T17:36:45.422Z,95.93
2023-01-25T17:39:31.312Z,93.68
2023-01-25T17:41:59.780Z,84.25
2023-01-25T17:44:27.577Z,90.18
2023-01-25T17:46:56.192Z,90.35
2023-01-25T17:49:25.254Z,92.78
2023-01-25T17:51:53.897Z,83.50
2023-01-25T17:54:21.557Z,92.60
2023-01-25T17:56:50.158Z,86.13
2023-01-25T17:59:17.833Z,93.50
2023-01-25T18:01:46.151Z,93.55
2023-01-25T18:04:17.617Z,92.57
2023-01-25T18:06:46.179Z,89.80
2023-01-25T18:09:14.283Z,92.47
2023-01-25T18:11:42.710Z,96.45
2023-01-25T18:14:15.405Z,91.68
2023-01-25T18:19:12.200Z,90.90
2023-01-25T18:21:42.287Z,95.82
2023-01-25T18:24:36.367Z,88.93
2023-01-25T18:27:15.708Z,85.10
2023-01-25T18:30:08.815Z,85.55
2023-01-25T18:32:36.907Z,82.47
2023-01-25T18:35:05.782Z,83.28
2023-01-25T18:37:39.849Z,81.70
2023-01-25T18:40:09.490Z,93.13
2023-01-25T18:42:38.638Z,82.43
2023-01-25T18:45:09.859Z,86.68
2023-01-25T18:47:38.454Z,89.60
2023-01-25T18:50:08.301Z,87.53
2023-01-25T18:52:36.861Z,90.95
2023-01-25T18:55:05.362Z,93.43
2023-01-25T18:57:34.058Z,86.47
2023-01-25T19:00:01.879Z,92.72
2023-01-25T19:02:30.152Z,87.90
2023-01-25T19:04:57.958Z,80.20
2023-01-25T19:07:26.540Z,82.53
2023-01-25T19:09:54.364Z,86.95
2023-01-25T19:12:22.730Z,85.35
2023-01-25T19:14:50.504Z,80.60
2023-01-25T19:17:18.994Z,86.43
2023-01-25T19:19:46.927Z,86.40
2023-01-25T19:22:15.398Z,76.78
2023-01-25T19:24:43.480Z,76.18
2023-01-25T19:27:11.663Z,80.15
2023-01-25T19:29:39.745Z,83.35
2023-01-25T19:32:08.261Z,80.28
2023-01-25T19:34:36.161Z,87.20
2023-01-25T19:37:04.714Z,83.28
2023-01-25T19:39:32.579Z,90.55
2023-01-25T19:42:01.082Z,87.18
2023-01-25T19:44:29.097Z,85.88
2023-01-25T19:46:57.306Z,84.72
2023-01-25T19:49:25.484Z,73.32
2023-01-25T19:51:53.720Z,80.88
2023-01-25T19:54:23.256Z,84.15
2023-01-25T19:56:51.881Z,74.07
2023-01-25T19:59:23.585Z,81.35
2023-01-25T20:01:52.784Z,84.22
2023-01-25T20:04:23.559Z,86.60
2023-01-25T20:06:53.068Z,88.15
2023-01-25T20:09:27.734Z,88.18
2023-01-25T20:11:57.673Z,84.88
2023-01-25T20:14:25.665Z,77.80
2023-01-25T20:16:54.651Z,78.60
2023-01-25T20:19:22.728Z,81.30
2023-01-25T20:21:51.405Z,78.57
2023-01-25T20:24:19.296Z,83.68
2023-01-25T20:26:48.248Z,77.30
2023-01-25T20:29:16.377Z,74.93
2023-01-25T20:31:46.246Z,79.90
2023-01-25T20:34:19.430Z,74.88
2023-01-25T20:36:48.388Z,82.38
2023-01-25T20:39:19.143Z,78.22
2023-01-25T20:41:48.444Z,79.97
2023-01-25T20:44:18.405Z,76.65
2023-01-25T20:46:47.083Z,78.55
2023-01-25T20:49:17.287Z,80.65
2023-01-25T20:51:47.780Z,77.25
2023-01-25T20:54:16.547Z,83.45
2023-01-25T20:56:48.078Z,81.55
2023-01-25T20:59:18.359Z,73.88
2023-01-25T21:01:47.122Z,78.10
2023-01-25T21:04:15.289Z,79.30
2023-01-25T21:06:43.868Z,76.68
2023-01-25T21:09:12.773Z,83.18
2023-01-25T21:11:41.842Z,89.03
2023-01-25T21:14:09.593Z,92.60
2023-01-25T21:16:38.065Z,75.60
2023-01-25T21:19:07.524Z,79.75
2023-01-25T21:21:36.345Z,73.25
2023-01-25T21:24:06.023Z,69.85
2023-01-25T21:26:36.004Z,73.32
2023-01-25T21:29:05.078Z,72.10
2023-01-25T21:31:36.690Z,73.72
2023-01-25T21:34:05.831Z,71.88
2023-01-25T21:36:34.214Z,76.45
2023-01-25T21:39:02.826Z,72.30
2023-01-25T21:41:34.084Z,77.25
2023-01-25T21:44:21.074Z,71.43
2023-01-25T21:47:15.758Z,74.68
2023-01-25T21:49:55.871Z,70.07
2023-01-25T21:52:24.671Z,70.20
2023-01-25T21:54:52.344Z,71.85
2023-01-25T21:57:21.008Z,72.18
2023-01-25T21:59:49.343Z,72.63
2023-01-25T22:02:17.627Z,67.93
2023-01-25T22:04:45.674Z,74.13
2023-01-25T22:07:14.824Z,77.60
2023-01-25T22:09:42.979Z,72.18
2023-01-25T22:12:12.663Z,69.40
2023-01-25T22:14:41.054Z,76.72
2023-01-25T22:17:09.706Z,74.65
2023-01-25T22:19:37.524Z,74.35
2023-01-25T22:22:06.012Z,74.75
2023-01-25T22:24:34.678Z,72.28
2023-01-25T22:27:09.138Z,74.80
2023-01-25T22:29:37.308Z,82.45
2023-01-25T22:32:06.265Z,76.43
2023-01-25T22:34:34.090Z,75.22
2023-01-25T22:37:02.743Z,83.40
2023-01-25T22:39:30.522Z,78.88
2023-01-25T22:41:58.773Z,79.55
2023-01-25T22:44:26.602Z,83.50
2023-01-25T22:46:55.120Z,73.45
2023-01-25T22:49:23.095Z,91.93
2023-01-25T22:51:51.599Z,84.45
2023-01-25T22:54:19.475Z,84.05
2023-01-25T22:56:47.639Z,78.80
2023-01-25T22:59:19.115Z,75.93
2023-01-25T23:01:47.686Z,81.13
2023-01-25T23:04:15.735Z,79.97
2023-01-25T23:06:43.977Z,82.78
2023-01-25T23:09:11.855Z,79.35
2023-01-25T23:11:40.320Z,82.65
2023-01-25T23:14:30.261Z,80.97
2023-01-25T23:17:17.256Z,86.20
2023-01-25T23:19:45.593Z,85.15
2023-01-25T23:22:14.167Z,94.22
2023-01-25T23:24:41.829Z,88.28
2023-01-25T23:27:09.994Z,93.28
2023-01-25T23:29:37.821Z,86.53
2023-01-25T23:32:06.235Z,89.25
2023-01-25T23:34:37.432Z,93.07
2023-01-25T23:37:06.037Z,95.20
2023-01-25T23:39:33.923Z,89.35
2023-01-25T23:42:02.136Z,101.40
2023-01-25T23:44:29.918Z,100.85
2023-01-25T23:46:58.093Z,89.75
2023-01-25T23:49:25.783Z,92.78
2023-01-25T23:51:53.865Z,95.93
2023-01-25T23:54:21.672Z,92.43
2023-01-25T23:56:50.236Z,94.30
2023-01-25T23:59:17.968Z,98.70
